sensor_id;sensor_type;location;lat;lon;timestamp;P1;durP1;ratioP1;P2;durP2;ratioP2
41426;SDS011;27171;51.812;19.514;2023-03-03T00:02:58;44.92;;;24.00;;
41426;SDS011;27171;51.812;19.514;2023-03-03T00:06:04;61.15;;;29.60;;
41426;SDS011;27171;51.812;19.514;2023-03-03T00:09:05;59.78;;;33.30;;
41426;SDS011;27171;51.812;19.514;2023-03-03T00:15:26;56.28;;;31.20;;
41426;SDS011;27171;51.812;19.514;2023-03-03T00:18:36;49.92;;;26.98;;
41426;SDS011;27171;51.812;19.514;2023-03-03T00:21:45;45.78;;;26.42;;
41426;SDS011;27171;51.812;19.514;2023-03-03T00:24:48;49.25;;;27.67;;
41426;SDS011;27171;51.812;19.514;2023-03-03T00:30:51;42.65;;;24.33;;
41426;SDS011;27171;51.812;19.514;2023-03-03T00:33:53;50.33;;;28.40;;
41426;SDS011;27171;51.812;19.514;2023-03-03T00:36:57;45.55;;;26.05;;
41426;SDS011;27171;51.812;19.514;2023-03-03T00:43:24;44.45;;;24.30;;
41426;SDS011;27171;51.812;19.514;2023-03-03T00:46:33;47.47;;;25.55;;
41426;SDS011;27171;51.812;19.514;2023-03-03T00:49:36;49.33;;;26.50;;
41426;SDS011;27171;51.812;19.514;2023-03-03T00:52:40;49.83;;;25.27;;
41426;SDS011;27171;51.812;19.514;2023-03-03T00:55:57;48.65;;;28.00;;
41426;SDS011;27171;51.812;19.514;2023-03-03T00:58:58;56.50;;;29.90;;
41426;SDS011;27171;51.812;19.514;2023-03-03T01:02:02;52.78;;;29.25;;
41426;SDS011;27171;51.812;19.514;2023-03-03T01:05:04;56.22;;;31.27;;
41426;SDS011;27171;51.812;19.514;2023-03-03T01:08:05;53.10;;;30.63;;
41426;SDS011;27171;51.812;19.514;2023-03-03T01:11:27;52.33;;;27.55;;
41426;SDS011;27171;51.812;19.514;2023-03-03T01:14:28;45.45;;;25.75;;
41426;SDS011;27171;51.812;19.514;2023-03-03T01:17:29;49.95;;;26.70;;
41426;SDS011;27171;51.812;19.514;2023-03-03T01:20:30;45.28;;;25.92;;
41426;SDS011;27171;51.812;19.514;2023-03-03T01:26:33;43.03;;;24.58;;
41426;SDS011;27171;51.812;19.514;2023-03-03T01:29:34;42.47;;;23.42;;
41426;SDS011;27171;51.812;19.514;2023-03-03T01:32:35;42.15;;;23.80;;
41426;SDS011;27171;51.812;19.514;2023-03-03T01:35:36;44.38;;;24.25;;
41426;SDS011;27171;51.812;19.514;2023-03-03T01:41:39;45.88;;;24.60;;
41426;SDS011;27171;51.812;19.514;2023-03-03T01:44:41;46.08;;;26.25;;
41426;SDS011;27171;51.812;19.514;2023-03-03T01:50:59;44.13;;;25.00;;
41426;SDS011;27171;51.812;19.514;2023-03-03T01:54:20;53.08;;;27.08;;
41426;SDS011;27171;51.812;19.514;2023-03-03T01:57:36;44.63;;;23.52;;
41426;SDS011;27171;51.812;19.514;2023-03-03T02:00:43;49.78;;;27.38;;
41426;SDS011;27171;51.812;19.514;2023-03-03T02:03:49;47.30;;;25.45;;
41426;SDS011;27171;51.812;19.514;2023-03-03T02:06:51;47.13;;;27.38;;
41426;SDS011;27171;51.812;19.514;2023-03-03T02:13:06;51.63;;;27.27;;
41426;SDS011;27171;51.812;19.514;2023-03-03T02:16:07;50.38;;;27.30;;
41426;SDS011;27171;51.812;19.514;2023-03-03T02:19:32;48.88;;;25.90;;
41426;SDS011;27171;51.812;19.514;2023-03-03T02:26:25;39.33;;;21.85;;
41426;SDS011;27171;51.812;19.514;2023-03-03T02:29:33;49.45;;;26.75;;
41426;SDS011;27171;51.812;19.514;2023-03-03T02:35:38;36.60;;;18.52;;
41426;SDS011;27171;51.812;19.514;2023-03-03T02:38:45;42.80;;;22.25;;
41426;SDS011;27171;51.812;19.514;2023-03-03T02:45:13;50.05;;;26.25;;
41426;SDS011;27171;51.812;19.514;2023-03-03T02:48:14;50.78;;;25.65;;
41426;SDS011;27171;51.812;19.514;2023-03-03T02:51:15;48.60;;;25.42;;
41426;SDS011;27171;51.812;19.514;2023-03-03T02:54:17;44.55;;;24.38;;
41426;SDS011;27171;51.812;19.514;2023-03-03T02:57:19;51.13;;;26.90;;
41426;SDS011;27171;51.812;19.514;2023-03-03T03:00:22;48.17;;;26.08;;
41426;SDS011;27171;51.812;19.514;2023-03-03T03:03:23;48.90;;;25.92;;
41426;SDS011;27171;51.812;19.514;2023-03-03T03:06:25;50.17;;;27.55;;
41426;SDS011;27171;51.812;19.514;2023-03-03T03:09:32;47.90;;;27.38;;
41426;SDS011;27171;51.812;19.514;2023-03-03T03:12:34;42.65;;;23.67;;
41426;SDS011;27171;51.812;19.514;2023-03-03T03:15:35;44.53;;;21.67;;
41426;SDS011;27171;51.812;19.514;2023-03-03T03:18:37;41.75;;;23.08;;
41426;SDS011;27171;51.812;19.514;2023-03-03T03:21:39;54.58;;;27.40;;
41426;SDS011;27171;51.812;19.514;2023-03-03T03:24:41;44.72;;;25.13;;
41426;SDS011;27171;51.812;19.514;2023-03-03T03:27:43;47.35;;;25.23;;
41426;SDS011;27171;51.812;19.514;2023-03-03T03:30:44;46.90;;;27.40;;
41426;SDS011;27171;51.812;19.514;2023-03-03T03:33:46;48.65;;;26.55;;
41426;SDS011;27171;51.812;19.514;2023-03-03T03:36:49;49.15;;;27.10;;
41426;SDS011;27171;51.812;19.514;2023-03-03T03:39:51;47.88;;;25.98;;
41426;SDS011;27171;51.812;19.514;2023-03-03T03:42:53;50.47;;;26.80;;
41426;SDS011;27171;51.812;19.514;2023-03-03T03:45:55;52.88;;;28.02;;
41426;SDS011;27171;51.812;19.514;2023-03-03T03:48:57;51.00;;;27.17;;
41426;SDS011;27171;51.812;19.514;2023-03-03T03:51:59;44.00;;;23.63;;
41426;SDS011;27171;51.812;19.514;2023-03-03T03:55:04;51.05;;;27.80;;
41426;SDS011;27171;51.812;19.514;2023-03-03T03:58:06;49.17;;;25.60;;
41426;SDS011;27171;51.812;19.514;2023-03-03T04:01:08;45.88;;;26.15;;
41426;SDS011;27171;51.812;19.514;2023-03-03T04:04:14;49.63;;;27.95;;
41426;SDS011;27171;51.812;19.514;2023-03-03T04:07:16;46.67;;;26.08;;
41426;SDS011;27171;51.812;19.514;2023-03-03T04:10:18;48.40;;;24.58;;
41426;SDS011;27171;51.812;19.514;2023-03-03T04:13:20;47.38;;;26.75;;
41426;SDS011;27171;51.812;19.514;2023-03-03T04:16:21;53.38;;;26.45;;
41426;SDS011;27171;51.812;19.514;2023-03-03T04:19:22;45.80;;;26.42;;
41426;SDS011;27171;51.812;19.514;2023-03-03T04:22:25;42.58;;;25.08;;
41426;SDS011;27171;51.812;19.514;2023-03-03T04:25:26;47.33;;;25.88;;
41426;SDS011;27171;51.812;19.514;2023-03-03T04:28:28;56.95;;;30.40;;
41426;SDS011;27171;51.812;19.514;2023-03-03T04:31:29;46.95;;;27.02;;
41426;SDS011;27171;51.812;19.514;2023-03-03T04:34:31;44.55;;;24.58;;
41426;SDS011;27171;51.812;19.514;2023-03-03T04:37:33;48.83;;;28.95;;
41426;SDS011;27171;51.812;19.514;2023-03-03T04:40:35;53.72;;;29.40;;
41426;SDS011;27171;51.812;19.514;2023-03-03T04:43:37;54.03;;;29.73;;
41426;SDS011;27171;51.812;19.514;2023-03-03T04:46:39;44.78;;;25.23;;
41426;SDS011;27171;51.812;19.514;2023-03-03T04:49:41;52.70;;;25.38;;
41426;SDS011;27171;51.812;19.514;2023-03-03T04:52:43;51.25;;;26.80;;
41426;SDS011;27171;51.812;19.514;2023-03-03T04:55:48;46.40;;;25.10;;
41426;SDS011;27171;51.812;19.514;2023-03-03T04:58:52;52.03;;;28.30;;
41426;SDS011;27171;51.812;19.514;2023-03-03T05:01:54;59.58;;;30.10;;
41426;SDS011;27171;51.812;19.514;2023-03-03T05:04:55;47.90;;;24.75;;
41426;SDS011;27171;51.812;19.514;2023-03-03T05:07:56;57.20;;;29.65;;
41426;SDS011;27171;51.812;19.514;2023-03-03T05:10:57;52.72;;;28.70;;
41426;SDS011;27171;51.812;19.514;2023-03-03T05:13:58;43.58;;;23.80;;
41426;SDS011;27171;51.812;19.514;2023-03-03T05:20:00;49.42;;;24.60;;
41426;SDS011;27171;51.812;19.514;2023-03-03T05:23:01;42.40;;;23.20;;
41426;SDS011;27171;51.812;19.514;2023-03-03T05:29:04;55.67;;;28.27;;
41426;SDS011;27171;51.812;19.514;2023-03-03T05:32:05;54.67;;;28.65;;
41426;SDS011;27171;51.812;19.514;2023-03-03T05:38:07;45.13;;;23.23;;
41426;SDS011;27171;51.812;19.514;2023-03-03T05:41:09;43.40;;;24.42;;
41426;SDS011;27171;51.812;19.514;2023-03-03T05:44:10;51.85;;;28.00;;
41426;SDS011;27171;51.812;19.514;2023-03-03T05:47:11;47.22;;;24.85;;
41426;SDS011;27171;51.812;19.514;2023-03-03T05:50:13;48.88;;;25.80;;
41426;SDS011;27171;51.812;19.514;2023-03-03T05:53:15;52.35;;;26.85;;
41426;SDS011;27171;51.812;19.514;2023-03-03T05:59:17;44.33;;;23.10;;
41426;SDS011;27171;51.812;19.514;2023-03-03T06:02:18;56.75;;;30.10;;
41426;SDS011;27171;51.812;19.514;2023-03-03T06:08:20;37.92;;;21.30;;
41426;SDS011;27171;51.812;19.514;2023-03-03T06:11:21;51.38;;;25.63;;
41426;SDS011;27171;51.812;19.514;2023-03-03T06:14:22;52.25;;;27.25;;
41426;SDS011;27171;51.812;19.514;2023-03-03T06:17:23;54.05;;;29.17;;
41426;SDS011;27171;51.812;19.514;2023-03-03T06:20:24;50.35;;;25.95;;
41426;SDS011;27171;51.812;19.514;2023-03-03T06:26:26;45.10;;;24.27;;
41426;SDS011;27171;51.812;19.514;2023-03-03T06:29:27;54.10;;;28.05;;
41426;SDS011;27171;51.812;19.514;2023-03-03T06:35:29;50.95;;;25.30;;
41426;SDS011;27171;51.812;19.514;2023-03-03T06:38:31;59.45;;;30.80;;
41426;SDS011;27171;51.812;19.514;2023-03-03T06:41:32;63.00;;;30.00;;
41426;SDS011;27171;51.812;19.514;2023-03-03T06:44:33;58.47;;;29.73;;
41426;SDS011;27171;51.812;19.514;2023-03-03T06:47:35;55.25;;;28.05;;
41426;SDS011;27171;51.812;19.514;2023-03-03T06:50:36;53.75;;;27.73;;
41426;SDS011;27171;51.812;19.514;2023-03-03T06:53:37;51.85;;;27.15;;
41426;SDS011;27171;51.812;19.514;2023-03-03T07:02:40;47.05;;;22.25;;
41426;SDS011;27171;51.812;19.514;2023-03-03T07:05:41;46.63;;;24.63;;
41426;SDS011;27171;51.812;19.514;2023-03-03T07:08:42;54.67;;;26.67;;
41426;SDS011;27171;51.812;19.514;2023-03-03T07:14:45;49.05;;;25.23;;
41426;SDS011;27171;51.812;19.514;2023-03-03T07:17:52;51.10;;;27.00;;
41426;SDS011;27171;51.812;19.514;2023-03-03T07:20:55;48.72;;;25.92;;
41426;SDS011;27171;51.812;19.514;2023-03-03T07:23:58;45.30;;;24.63;;
41426;SDS011;27171;51.812;19.514;2023-03-03T07:30:25;66.40;;;32.97;;
41426;SDS011;27171;51.812;19.514;2023-03-03T07:33:30;56.55;;;27.33;;
41426;SDS011;27171;51.812;19.514;2023-03-03T07:36:35;59.70;;;28.70;;
41426;SDS011;27171;51.812;19.514;2023-03-03T07:39:37;55.80;;;26.35;;
41426;SDS011;27171;51.812;19.514;2023-03-03T07:42:41;70.47;;;32.28;;
41426;SDS011;27171;51.812;19.514;2023-03-03T07:46:01;57.22;;;26.88;;
41426;SDS011;27171;51.812;19.514;2023-03-03T07:49:20;55.97;;;25.85;;
41426;SDS011;27171;51.812;19.514;2023-03-03T07:52:24;55.42;;;26.30;;
41426;SDS011;27171;51.812;19.514;2023-03-03T07:55:39;54.67;;;26.35;;
41426;SDS011;27171;51.812;19.514;2023-03-03T07:58:41;46.78;;;22.23;;
41426;SDS011;27171;51.812;19.514;2023-03-03T08:01:43;55.45;;;26.05;;
41426;SDS011;27171;51.812;19.514;2023-03-03T08:04:47;54.97;;;27.30;;
41426;SDS011;27171;51.812;19.514;2023-03-03T08:07:49;55.20;;;26.70;;
41426;SDS011;27171;51.812;19.514;2023-03-03T08:10:53;44.55;;;22.90;;
41426;SDS011;27171;51.812;19.514;2023-03-03T08:13:55;50.83;;;24.52;;
41426;SDS011;27171;51.812;19.514;2023-03-03T08:16:56;57.17;;;26.05;;
41426;SDS011;27171;51.812;19.514;2023-03-03T08:19:58;54.60;;;23.42;;
41426;SDS011;27171;51.812;19.514;2023-03-03T08:26:00;47.88;;;22.33;;
41426;SDS011;27171;51.812;19.514;2023-03-03T08:29:01;50.80;;;23.38;;
41426;SDS011;27171;51.812;19.514;2023-03-03T08:32:02;49.97;;;23.63;;
41426;SDS011;27171;51.812;19.514;2023-03-03T08:35:03;56.53;;;25.50;;
41426;SDS011;27171;51.812;19.514;2023-03-03T08:38:05;54.88;;;25.10;;
41426;SDS011;27171;51.812;19.514;2023-03-03T08:41:06;47.33;;;20.88;;
41426;SDS011;27171;51.812;19.514;2023-03-03T08:44:08;63.17;;;28.70;;
41426;SDS011;27171;51.812;19.514;2023-03-03T08:47:09;50.05;;;22.45;;
41426;SDS011;27171;51.812;19.514;2023-03-03T08:50:11;50.08;;;23.65;;
41426;SDS011;27171;51.812;19.514;2023-03-03T08:53:13;55.08;;;24.38;;
41426;SDS011;27171;51.812;19.514;2023-03-03T08:56:14;51.47;;;22.67;;
41426;SDS011;27171;51.812;19.514;2023-03-03T09:02:16;43.85;;;20.23;;
41426;SDS011;27171;51.812;19.514;2023-03-03T09:08:19;49.97;;;23.75;;
41426;SDS011;27171;51.812;19.514;2023-03-03T09:14:26;42.88;;;21.40;;
41426;SDS011;27171;51.812;19.514;2023-03-03T09:17:32;44.35;;;21.98;;
41426;SDS011;27171;51.812;19.514;2023-03-03T09:20:35;45.65;;;23.52;;
41426;SDS011;27171;51.812;19.514;2023-03-03T09:23:41;42.17;;;21.77;;
41426;SDS011;27171;51.812;19.514;2023-03-03T09:26:47;39.03;;;19.52;;
41426;SDS011;27171;51.812;19.514;2023-03-03T09:29:49;44.35;;;22.92;;
41426;SDS011;27171;51.812;19.514;2023-03-03T09:39:22;44.03;;;22.40;;
41426;SDS011;27171;51.812;19.514;2023-03-03T10:02:30;38.60;;;20.55;;
41426;SDS011;27171;51.812;19.514;2023-03-03T10:08:58;41.63;;;21.83;;
41426;SDS011;27171;51.812;19.514;2023-03-03T10:15:33;42.53;;;23.20;;
41426;SDS011;27171;51.812;19.514;2023-03-03T10:18:44;41.65;;;22.23;;
41426;SDS011;27171;51.812;19.514;2023-03-03T10:21:50;38.85;;;19.88;;
41426;SDS011;27171;51.812;19.514;2023-03-03T10:32:08;47.47;;;23.48;;
41426;SDS011;27171;51.812;19.514;2023-03-03T10:35:15;48.30;;;24.88;;
41426;SDS011;27171;51.812;19.514;2023-03-03T10:41:58;44.63;;;23.25;;
41426;SDS011;27171;51.812;19.514;2023-03-03T11:10:00;41.25;;;21.73;;
41426;SDS011;27171;51.812;19.514;2023-03-03T11:13:20;41.85;;;23.25;;
41426;SDS011;27171;51.812;19.514;2023-03-03T11:39:09;52.00;;;26.38;;
41426;SDS011;27171;51.812;19.514;2023-03-03T11:45:39;47.15;;;22.80;;
41426;SDS011;27171;51.812;19.514;2023-03-03T11:55:16;56.50;;;26.67;;
41426;SDS011;27171;51.812;19.514;2023-03-03T12:02:18;49.72;;;23.48;;
41426;SDS011;27171;51.812;19.514;2023-03-03T12:38:06;64.18;;;27.65;;
41426;SDS011;27171;51.812;19.514;2023-03-03T12:48:09;51.03;;;25.05;;
41426;SDS011;27171;51.812;19.514;2023-03-03T13:14:51;39.47;;;20.75;;
41426;SDS011;27171;51.812;19.514;2023-03-03T13:21:34;43.35;;;22.83;;
41426;SDS011;27171;51.812;19.514;2023-03-03T13:24:52;39.97;;;20.75;;
41426;SDS011;27171;51.812;19.514;2023-03-03T13:28:11;35.17;;;18.65;;
41426;SDS011;27171;51.812;19.514;2023-03-03T13:31:50;41.78;;;22.83;;
41426;SDS011;27171;51.812;19.514;2023-03-03T13:35:43;42.63;;;21.10;;
41426;SDS011;27171;51.812;19.514;2023-03-03T13:38:55;36.13;;;19.55;;
41426;SDS011;27171;51.812;19.514;2023-03-03T13:45:29;46.17;;;23.15;;
41426;SDS011;27171;51.812;19.514;2023-03-03T13:52:11;45.58;;;23.88;;
41426;SDS011;27171;51.812;19.514;2023-03-03T13:55:30;46.50;;;22.98;;
41426;SDS011;27171;51.812;19.514;2023-03-03T14:09:08;51.97;;;26.60;;
41426;SDS011;27171;51.812;19.514;2023-03-03T14:12:20;47.38;;;25.35;;
41426;SDS011;27171;51.812;19.514;2023-03-03T14:15:33;37.22;;;18.70;;
41426;SDS011;27171;51.812;19.514;2023-03-03T14:25:14;38.58;;;20.42;;
41426;SDS011;27171;51.812;19.514;2023-03-03T14:28:15;43.40;;;20.98;;
41426;SDS011;27171;51.812;19.514;2023-03-03T14:31:22;43.90;;;22.55;;
41426;SDS011;27171;51.812;19.514;2023-03-03T14:34:36;36.90;;;18.80;;
41426;SDS011;27171;51.812;19.514;2023-03-03T14:37:43;40.70;;;21.05;;
41426;SDS011;27171;51.812;19.514;2023-03-03T14:40:46;39.95;;;18.27;;
41426;SDS011;27171;51.812;19.514;2023-03-03T14:43:59;42.97;;;22.83;;
41426;SDS011;27171;51.812;19.514;2023-03-03T14:50:26;50.13;;;25.95;;
41426;SDS011;27171;51.812;19.514;2023-03-03T14:53:37;42.50;;;22.10;;
41426;SDS011;27171;51.812;19.514;2023-03-03T15:00:24;39.10;;;20.58;;
41426;SDS011;27171;51.812;19.514;2023-03-03T15:03:31;37.53;;;17.95;;
41426;SDS011;27171;51.812;19.514;2023-03-03T15:06:42;37.08;;;20.42;;
41426;SDS011;27171;51.812;19.514;2023-03-03T15:09:50;46.45;;;23.90;;
41426;SDS011;27171;51.812;19.514;2023-03-03T15:12:51;34.22;;;19.17;;
41426;SDS011;27171;51.812;19.514;2023-03-03T15:31:56;34.17;;;18.23;;
41426;SDS011;27171;51.812;19.514;2023-03-03T15:38:27;36.70;;;19.67;;
41426;SDS011;27171;51.812;19.514;2023-03-03T15:41:36;38.15;;;20.60;;
41426;SDS011;27171;51.812;19.514;2023-03-03T16:04:30;36.55;;;21.40;;
41426;SDS011;27171;51.812;19.514;2023-03-03T16:10:56;28.38;;;16.92;;
41426;SDS011;27171;51.812;19.514;2023-03-03T16:24:07;30.85;;;17.38;;
41426;SDS011;27171;51.812;19.514;2023-03-03T16:30:33;31.92;;;17.33;;
41426;SDS011;27171;51.812;19.514;2023-03-03T16:33:40;34.88;;;19.30;;
41426;SDS011;27171;51.812;19.514;2023-03-03T16:46:38;31.38;;;18.25;;
41426;SDS011;27171;51.812;19.514;2023-03-03T16:49:54;29.90;;;17.70;;
41426;SDS011;27171;51.812;19.514;2023-03-03T17:00:14;35.42;;;19.98;;
41426;SDS011;27171;51.812;19.514;2023-03-03T17:06:54;33.47;;;17.33;;
41426;SDS011;27171;51.812;19.514;2023-03-03T17:29:57;45.60;;;23.95;;
41426;SDS011;27171;51.812;19.514;2023-03-03T17:43:01;35.33;;;19.70;;
41426;SDS011;27171;51.812;19.514;2023-03-03T17:46:12;32.65;;;19.15;;
41426;SDS011;27171;51.812;19.514;2023-03-03T17:59:22;36.80;;;21.20;;
41426;SDS011;27171;51.812;19.514;2023-03-03T18:16:03;37.33;;;21.15;;
41426;SDS011;27171;51.812;19.514;2023-03-03T18:22:43;31.48;;;18.50;;
41426;SDS011;27171;51.812;19.514;2023-03-03T18:36:09;40.38;;;21.50;;
41426;SDS011;27171;51.812;19.514;2023-03-03T18:39:44;32.13;;;18.92;;
41426;SDS011;27171;51.812;19.514;2023-03-03T18:42:47;34.95;;;19.20;;
41426;SDS011;27171;51.812;19.514;2023-03-03T18:45:49;40.17;;;22.92;;
41426;SDS011;27171;51.812;19.514;2023-03-03T18:49:01;42.30;;;21.85;;
41426;SDS011;27171;51.812;19.514;2023-03-03T18:52:15;38.75;;;21.13;;
41426;SDS011;27171;51.812;19.514;2023-03-03T18:55:23;35.72;;;19.70;;
41426;SDS011;27171;51.812;19.514;2023-03-03T19:01:44;39.60;;;23.23;;
41426;SDS011;27171;51.812;19.514;2023-03-03T19:04:48;41.55;;;23.88;;
41426;SDS011;27171;51.812;19.514;2023-03-03T19:07:56;40.47;;;21.73;;
41426;SDS011;27171;51.812;19.514;2023-03-03T19:11:01;40.45;;;20.58;;
41426;SDS011;27171;51.812;19.514;2023-03-03T19:26:26;33.17;;;17.80;;
41426;SDS011;27171;51.812;19.514;2023-03-03T19:36:06;33.25;;;19.80;;
41426;SDS011;27171;51.812;19.514;2023-03-03T20:02:41;37.25;;;22.15;;
41426;SDS011;27171;51.812;19.514;2023-03-03T20:06:10;37.55;;;22.08;;
41426;SDS011;27171;51.812;19.514;2023-03-03T20:09:47;36.78;;;21.50;;
41426;SDS011;27171;51.812;19.514;2023-03-03T20:12:50;44.03;;;25.13;;
41426;SDS011;27171;51.812;19.514;2023-03-03T20:16:09;40.38;;;23.92;;
41426;SDS011;27171;51.812;19.514;2023-03-03T20:26:00;39.35;;;24.48;;
41426;SDS011;27171;51.812;19.514;2023-03-03T20:29:20;36.67;;;22.88;;
41426;SDS011;27171;51.812;19.514;2023-03-03T20:43:02;33.35;;;20.27;;
41426;SDS011;27171;51.812;19.514;2023-03-03T20:46:28;35.30;;;21.75;;
41426;SDS011;27171;51.812;19.514;2023-03-03T20:59:45;33.95;;;19.63;;
41426;SDS011;27171;51.812;19.514;2023-03-03T21:06:35;39.10;;;25.25;;
41426;SDS011;27171;51.812;19.514;2023-03-03T21:09:37;39.13;;;24.83;;
41426;SDS011;27171;51.812;19.514;2023-03-03T21:12:39;41.15;;;24.55;;
41426;SDS011;27171;51.812;19.514;2023-03-03T21:15:41;43.97;;;25.52;;
41426;SDS011;27171;51.812;19.514;2023-03-03T21:18:42;46.60;;;26.38;;
41426;SDS011;27171;51.812;19.514;2023-03-03T21:21:56;42.60;;;26.13;;
41426;SDS011;27171;51.812;19.514;2023-03-03T21:24:58;47.58;;;28.45;;
41426;SDS011;27171;51.812;19.514;2023-03-03T21:31:19;44.95;;;27.58;;
41426;SDS011;27171;51.812;19.514;2023-03-03T21:40:59;41.17;;;25.38;;
41426;SDS011;27171;51.812;19.514;2023-03-03T21:44:26;39.92;;;23.85;;
41426;SDS011;27171;51.812;19.514;2023-03-03T21:47:39;47.38;;;26.02;;
41426;SDS011;27171;51.812;19.514;2023-03-03T21:50:41;46.92;;;26.65;;
41426;SDS011;27171;51.812;19.514;2023-03-03T21:53:43;44.70;;;26.70;;
41426;SDS011;27171;51.812;19.514;2023-03-03T21:56:44;50.53;;;29.10;;
41426;SDS011;27171;51.812;19.514;2023-03-03T21:59:46;50.40;;;28.10;;
41426;SDS011;27171;51.812;19.514;2023-03-03T22:02:47;49.83;;;28.98;;
41426;SDS011;27171;51.812;19.514;2023-03-03T22:05:48;47.33;;;28.85;;
41426;SDS011;27171;51.812;19.514;2023-03-03T22:11:50;48.30;;;27.33;;
41426;SDS011;27171;51.812;19.514;2023-03-03T22:14:52;42.47;;;25.85;;
41426;SDS011;27171;51.812;19.514;2023-03-03T22:17:53;42.65;;;25.15;;
41426;SDS011;27171;51.812;19.514;2023-03-03T22:20:54;48.90;;;27.52;;
41426;SDS011;27171;51.812;19.514;2023-03-03T22:23:55;49.47;;;30.27;;
41426;SDS011;27171;51.812;19.514;2023-03-03T22:26:57;45.40;;;26.67;;
41426;SDS011;27171;51.812;19.514;2023-03-03T22:29:58;48.30;;;29.30;;
41426;SDS011;27171;51.812;19.514;2023-03-03T22:33:00;52.25;;;32.67;;
41426;SDS011;27171;51.812;19.514;2023-03-03T22:36:01;49.50;;;30.05;;
41426;SDS011;27171;51.812;19.514;2023-03-03T22:39:02;50.92;;;30.33;;
41426;SDS011;27171;51.812;19.514;2023-03-03T22:42:03;49.22;;;30.02;;
41426;SDS011;27171;51.812;19.514;2023-03-03T22:45:05;52.65;;;30.38;;
41426;SDS011;27171;51.812;19.514;2023-03-03T22:48:06;48.85;;;27.70;;
41426;SDS011;27171;51.812;19.514;2023-03-03T22:54:08;44.28;;;24.77;;
41426;SDS011;27171;51.812;19.514;2023-03-03T22:57:09;45.30;;;26.13;;
41426;SDS011;27171;51.812;19.514;2023-03-03T23:00:11;45.05;;;26.33;;
41426;SDS011;27171;51.812;19.514;2023-03-03T23:03:14;44.53;;;26.27;;
41426;SDS011;27171;51.812;19.514;2023-03-03T23:06:15;46.75;;;26.80;;
41426;SDS011;27171;51.812;19.514;2023-03-03T23:09:16;52.28;;;28.83;;
41426;SDS011;27171;51.812;19.514;2023-03-03T23:12:18;46.42;;;28.80;;
41426;SDS011;27171;51.812;19.514;2023-03-03T23:15:19;48.97;;;28.65;;
41426;SDS011;27171;51.812;19.514;2023-03-03T23:21:21;43.63;;;25.38;;
41426;SDS011;27171;51.812;19.514;2023-03-03T23:24:22;51.08;;;29.45;;
41426;SDS011;27171;51.812;19.514;2023-03-03T23:27:23;48.30;;;26.48;;
41426;SDS011;27171;51.812;19.514;2023-03-03T23:30:24;49.83;;;27.50;;
41426;SDS011;27171;51.812;19.514;2023-03-03T23:33:26;47.85;;;26.70;;
41426;SDS011;27171;51.812;19.514;2023-03-03T23:39:28;46.80;;;25.17;;
41426;SDS011;27171;51.812;19.514;2023-03-03T23:42:29;50.53;;;27.75;;
41426;SDS011;27171;51.812;19.514;2023-03-03T23:45:30;54.60;;;30.20;;
41426;SDS011;27171;51.812;19.514;2023-03-03T23:51:32;46.70;;;25.83;;
41426;SDS011;27171;51.812;19.514;2023-03-03T23:54:34;49.25;;;27.15;;
41426;SDS011;27171;51.812;19.514;2023-03-03T23:57:35;46.33;;;25.50;;
